Time;durP1;ratioP1;P1;durP2;ratioP2;P2;SDS_P1;SDS_P2;PMS_P1;PMS_P2;Temp;Humidity;BMP_temperature;BMP_pressure;BME280_temperature;BME280_humidity;BME280_pressure;Samples;Min_cycle;Max_cycle;Signal;HPM_P1;HPM_P2
2022/08/04 00:01:52;;;;;;;12.13;3.65;;;;;;;24.23;68.35;101228.34;5014437;28;20045;-71
2022/08/04 00:04:42;;;;;;;16.90;3.45;;;;;;;24.04;69.64;101228.44;4997422;28;20025;-71
2022/08/04 00:07:36;;;;;;;20.08;3.97;;;;;;;24.09;68.97;101223.03;5006066;28;20029;-71
2022/08/04 00:10:04;;;;;;;10.75;3.35;;;;;;;24.19;68.36;101225.22;5004402;28;20034;-72
2022/08/04 00:12:33;;;;;;;19.42;4.32;;;;;;;24.07;68.82;101221.59;5014959;28;20018;-71
2022/08/04 00:15:01;;;;;;;18.95;3.60;;;;;;;24.00;68.52;101215.34;5020764;28;20037;-71
2022/08/04 00:17:44;;;;;;;34.33;4.63;;;;;;;23.88;69.10;101223.63;5016396;28;20029;-71
2022/08/04 00:20:14;;;;;;;16.73;3.60;;;;;;;23.89;69.00;101218.94;5034434;28;20490;-71
2022/08/04 00:22:44;;;;;;;13.05;3.95;;;;;;;23.79;69.64;101211.19;5012288;28;20469;-71
2022/08/04 00:25:09;;;;;;;13.63;3.53;;;;;;;23.80;69.31;101221.22;5000994;28;20028;-70
2022/08/04 00:27:35;;;;;;;12.40;4.13;;;;;;;23.81;69.53;101206.28;5016772;28;20025;-70
2022/08/04 00:30:00;;;;;;;15.88;3.47;;;;;;;23.71;69.89;101200.50;5016917;28;20078;-70
2022/08/04 00:32:26;;;;;;;13.02;3.50;;;;;;;23.58;69.80;101217.25;5008420;28;20037;-71
2022/08/04 00:34:54;;;;;;;16.98;3.78;;;;;;;23.76;69.33;101208.94;4997471;28;20033;-70
2022/08/04 00:37:24;;;;;;;18.52;4.22;;;;;;;23.77;69.14;101210.59;5008101;28;20116;-71
2022/08/04 00:39:50;;;;;;;15.32;3.75;;;;;;;23.71;69.19;101217.09;5007580;28;20018;-71
2022/08/04 00:42:38;;;;;;;19.00;3.65;;;;;;;23.81;68.95;101211.81;5014641;28;20026;-69
2022/08/04 00:45:33;;;;;;;13.35;3.10;;;;;;;23.79;68.90;101209.28;4996750;28;20029;-71
2022/08/04 00:48:27;;;;;;;22.60;4.13;;;;;;;23.79;68.74;101208.44;5014400;28;20048;-71
2022/08/04 00:51:01;;;;;;;12.70;4.00;;;;;;;23.72;69.06;101207.72;5003930;28;20492;-71
2022/08/04 00:53:35;;;;;;;11.45;3.83;;;;;;;23.59;69.82;101208.72;5009710;28;20029;-71
2022/08/04 00:56:17;;;;;;;17.05;3.50;;;;;;;23.56;69.37;101210.06;5014362;28;20095;-72
2022/08/04 00:59:01;;;;;;;20.58;3.35;;;;;;;23.55;69.84;101208.38;5002137;28;20037;-72
2022/08/04 01:01:57;;;;;;;14.57;3.33;;;;;;;23.56;69.40;101204.53;5013047;28;20030;-71
2022/08/04 01:05:03;;;;;;;14.10;3.47;;;;;;;23.43;70.21;101204.72;4996969;28;20022;-71
2022/08/04 01:07:35;;;;;;;24.02;3.80;;;;;;;23.31;70.80;101201.06;4993097;28;20080;-71
2022/08/04 01:10:11;;;;;;;14.55;4.22;;;;;;;23.35;70.75;101194.00;5015829;28;20025;-71
2022/08/04 01:13:12;;;;;;;23.05;4.65;;;;;;;23.31;70.51;101190.03;5012789;28;20037;-71
2022/08/04 01:16:04;;;;;;;13.82;3.72;;;;;;;23.26;70.42;101184.34;5025291;28;20021;-71
2022/08/04 01:19:20;;;;;;;17.05;3.70;;;;;;;23.14;71.26;101188.97;5015808;28;20049;-71
2022/08/04 01:21:54;;;;;;;13.55;3.67;;;;;;;23.07;71.98;101182.72;4979221;28;20027;-71
2022/08/04 01:24:46;;;;;;;14.13;3.72;;;;;;;23.11;71.28;101178.41;5017740;28;20037;-70
2022/08/04 01:27:48;;;;;;;16.65;4.03;;;;;;;23.09;71.41;101175.06;4995832;28;20102;-70
2022/08/04 01:30:13;;;;;;;6.80;3.67;;;;;;;23.14;71.00;101180.69;5012999;28;20056;-70
2022/08/04 01:32:52;;;;;;;12.55;3.50;;;;;;;23.04;71.33;101177.66;5013742;28;20053;-70
2022/08/04 01:35:27;;;;;;;8.98;3.50;;;;;;;23.00;71.54;101183.63;4995871;28;20072;-70
2022/08/04 01:38:22;;;;;;;12.73;3.75;;;;;;;22.98;71.49;101180.28;5028366;28;20022;-70
2022/08/04 01:40:52;;;;;;;23.27;4.10;;;;;;;22.98;71.26;101173.91;5015772;28;20030;-70
2022/08/04 01:43:19;;;;;;;6.93;3.45;;;;;;;22.95;71.24;101172.47;5003602;28;20026;-71
2022/08/04 01:45:50;;;;;;;14.18;3.15;;;;;;;22.83;72.09;101182.56;4995243;28;20037;-71
2022/08/04 01:48:17;;;;;;;15.00;3.38;;;;;;;22.69;72.44;101170.00;4994964;28;20017;-71
2022/08/04 01:50:44;;;;;;;8.90;3.33;;;;;;;22.63;72.79;101176.47;5000275;28;20419;-70
2022/08/04 01:53:10;;;;;;;19.58;4.18;;;;;;;22.61;72.72;101159.25;5014954;28;20025;-71
2022/08/04 01:55:36;;;;;;;8.13;3.40;;;;;;;22.61;72.76;101156.50;5015109;28;20220;-70
2022/08/04 01:58:04;;;;;;;9.98;3.50;;;;;;;22.51;73.21;101161.75;5021967;28;20022;-70
2022/08/04 02:00:29;;;;;;;15.35;3.70;;;;;;;22.30;74.07;101158.38;4995057;28;20099;-70
2022/08/04 02:02:56;;;;;;;12.80;4.20;;;;;;;22.29;74.06;101153.91;5022637;28;20030;-69
2022/08/04 02:05:25;;;;;;;17.92;3.80;;;;;;;22.33;73.45;101144.09;4995532;28;20127;-69
2022/08/04 02:08:32;;;;;;;9.48;3.55;;;;;;;22.37;72.89;101145.34;4995001;28;20046;-70
2022/08/04 02:11:17;;;;;;;13.77;3.72;;;;;;;22.31;73.90;101156.44;5001888;28;20040;-69
2022/08/04 02:13:55;;;;;;;12.88;3.28;;;;;;;22.26;74.42;101146.09;5031156;28;20087;-70
2022/08/04 02:16:38;;;;;;;7.47;3.55;;;;;;;22.36;73.63;101154.66;5032977;28;20033;-70
2022/08/04 02:19:13;;;;;;;16.65;4.55;;;;;;;22.48;72.97;101150.06;5011507;28;20022;-70
2022/08/04 02:21:39;;;;;;;10.00;3.53;;;;;;;22.44;73.52;101159.91;5021418;28;20028;-70
2022/08/04 02:24:07;;;;;;;13.02;3.45;;;;;;;22.37;73.35;101145.34;5015677;28;20037;-71
2022/08/04 02:26:35;;;;;;;14.70;3.78;;;;;;;22.18;73.99;101152.75;5032667;28;20030;-70
2022/08/04 02:29:13;;;;;;;12.73;4.03;;;;;;;22.28;73.74;101146.69;5031315;28;20021;-71
2022/08/04 02:31:47;;;;;;;13.38;3.42;;;;;;;22.29;73.36;101147.53;5011539;28;20507;-70
2022/08/04 02:34:28;;;;;;;12.13;3.80;;;;;;;22.32;73.46;101153.44;5002869;28;20030;-70
2022/08/04 02:36:54;;;;;;;12.20;4.30;;;;;;;22.29;73.52;101137.34;5017230;28;20025;-70
2022/08/04 02:39:21;;;;;;;18.58;4.18;;;;;;;22.04;74.51;101140.16;5017132;28;20131;-70
2022/08/04 02:41:48;;;;;;;11.20;3.58;;;;;;;22.11;73.84;101140.09;5016947;28;20048;-70
2022/08/04 02:44:21;;;;;;;10.32;3.20;;;;;;;22.14;73.66;101139.63;4998329;28;20044;-70
2022/08/04 02:46:51;;;;;;;13.57;4.43;;;;;;;22.13;73.70;101137.97;4998306;28;20045;-70
2022/08/04 02:49:17;;;;;;;18.95;3.60;;;;;;;22.17;73.60;101133.69;4998920;28;20036;-71
2022/08/04 02:51:49;;;;;;;10.63;3.17;;;;;;;22.20;73.44;101144.25;5011887;23;20026;-69
2022/08/04 02:54:18;;;;;;;12.13;3.47;;;;;;;22.18;73.51;101140.88;4984673;28;20043;-70
2022/08/04 02:56:44;;;;;;;16.48;3.70;;;;;;;22.12;73.54;101137.13;4996422;28;20030;-70
2022/08/04 02:59:11;;;;;;;11.82;3.53;;;;;;;22.08;73.65;101129.47;4997798;28;20076;-70
2022/08/04 03:01:38;;;;;;;11.38;4.22;;;;;;;22.01;74.18;101131.47;4986929;28;20023;-71
2022/08/04 03:04:20;;;;;;;9.85;3.83;;;;;;;21.89;74.73;101125.84;4981720;28;20053;-71
2022/08/04 03:06:48;;;;;;;9.60;3.83;;;;;;;21.88;74.43;101130.53;4989888;28;20022;-71
2022/08/04 03:09:36;;;;;;;14.48;4.35;;;;;;;21.83;74.42;101133.09;4992512;28;20026;-71
2022/08/04 03:12:39;;;;;;;14.00;3.70;;;;;;;21.82;74.46;101136.09;4993060;28;20026;-71
2022/08/04 03:15:39;;;;;;;14.07;4.32;;;;;;;21.70;75.22;101137.91;4992203;28;20022;-72
2022/08/04 03:18:32;;;;;;;15.07;4.13;;;;;;;21.64;74.87;101136.88;4997386;28;20503;-71
2022/08/04 03:21:22;;;;;;;15.68;4.35;;;;;;;21.57;75.04;101136.09;4981740;28;20023;-71
2022/08/04 03:24:25;;;;;;;15.38;4.32;;;;;;;21.58;75.18;101146.91;4989780;28;20040;-71
2022/08/04 03:27:00;;;;;;;11.02;3.28;;;;;;;21.58;75.32;101132.28;4988745;28;20101;-71
2022/08/04 03:29:54;;;;;;;13.15;4.45;;;;;;;21.56;75.33;101134.41;5001163;28;20041;-71
2022/08/04 03:32:42;;;;;;;10.02;3.33;;;;;;;21.48;74.91;101137.47;4993448;28;20030;-71
2022/08/04 03:35:40;;;;;;;11.32;4.18;;;;;;;21.44;75.61;101130.69;4997854;28;20030;-71
2022/08/04 03:38:36;;;;;;;17.38;3.90;;;;;;;21.46;76.03;101137.69;4987221;28;20053;-71
2022/08/04 03:41:19;;;;;;;9.63;3.10;;;;;;;21.40;75.52;101133.91;4993414;28;20096;-72
2022/08/04 03:44:09;;;;;;;9.82;3.60;;;;;;;21.35;75.50;101130.97;4993817;28;20026;-72
2022/08/04 03:46:46;;;;;;;13.55;4.35;;;;;;;21.25;77.18;101129.75;4991978;28;20015;-72
2022/08/04 03:49:20;;;;;;;11.27;4.05;;;;;;;21.30;76.84;101139.06;5008513;28;20030;-72
2022/08/04 03:55:24;;;;;;;13.27;3.80;;;;;;;21.23;77.25;101131.88;4993946;28;20018;-72
2022/08/04 03:58:07;;;;;;;11.63;4.18;;;;;;;21.16;77.92;101123.66;4992179;28;20069;-72
2022/08/04 04:00:46;;;;;;;12.70;4.40;;;;;;;21.14;78.12;101129.41;4981306;28;20181;-71
2022/08/04 04:03:48;;;;;;;12.25;4.40;;;;;;;21.08;78.27;101123.94;4993354;28;20022;-72
2022/08/04 04:06:19;;;;;;;13.65;4.32;;;;;;;21.07;77.95;101127.75;4993483;28;20023;-71
2022/08/04 04:09:03;;;;;;;16.92;4.03;;;;;;;21.06;78.69;101126.91;5008517;28;20018;-72
2022/08/04 04:11:34;;;;;;;14.13;4.00;;;;;;;21.15;78.11;101127.50;4973365;28;20031;-71
2022/08/04 04:14:15;;;;;;;23.08;5.18;;;;;;;21.12;78.78;101126.00;5005828;28;20101;-72
2022/08/04 04:17:07;;;;;;;10.70;4.28;;;;;;;21.16;78.44;101126.41;5008270;28;20054;-72
2022/08/04 04:19:52;;;;;;;10.70;3.85;;;;;;;21.22;78.38;101131.03;4984518;28;20037;-72
2022/08/04 04:22:49;;;;;;;13.77;4.35;;;;;;;21.32;77.95;101125.94;4991553;28;20029;-72
2022/08/04 04:25:52;;;;;;;15.40;4.53;;;;;;;21.38;77.39;101125.00;4991747;28;20053;-72
2022/08/04 04:28:42;;;;;;;7.97;4.15;;;;;;;21.39;77.48;101126.72;4992317;28;20037;-71
2022/08/04 04:31:46;;;;;;;8.60;4.60;;;;;;;21.54;77.33;101128.28;5005078;28;20054;-72
2022/08/04 04:34:30;;;;;;;19.58;4.43;;;;;;;21.67;76.25;101117.16;4982118;28;20052;-72
2022/08/04 04:37:18;;;;;;;10.82;4.53;;;;;;;21.63;76.91;101121.44;4990783;28;20097;-71
2022/08/04 04:39:58;;;;;;;17.55;4.10;;;;;;;21.69;76.27;101120.53;4986413;28;20105;-72
2022/08/04 04:42:53;;;;;;;16.05;3.78;;;;;;;21.97;75.20;101110.91;5009915;28;20051;-71
2022/08/04 04:45:45;;;;;;;17.00;4.07;;;;;;;22.13;74.66;101113.13;4981308;28;20057;-75
2022/08/04 04:48:29;;;;;;;20.92;4.15;;;;;;;22.04;75.22;101117.22;4996644;28;20027;-73
2022/08/04 04:51:21;;;;;;;11.45;3.92;;;;;;;22.06;75.17;101115.09;4999637;28;20023;-72
2022/08/04 04:54:00;;;;;;;13.40;4.40;;;;;;;22.02;75.64;101108.34;4991120;28;20042;-72
2022/08/04 04:56:57;;;;;;;17.70;4.28;;;;;;;22.24;74.69;101111.53;4990863;28;20029;-70
2022/08/04 04:59:27;;;;;;;10.57;4.40;;;;;;;22.35;74.41;101111.59;4991529;28;20046;-71
2022/08/04 05:02:14;;;;;;;13.95;3.97;;;;;;;22.24;74.94;101109.63;4986476;28;20098;-71
2022/08/04 05:05:33;;;;;;;11.35;3.83;;;;;;;22.32;74.54;101103.78;4984614;28;20445;-70
2022/08/04 05:08:49;;;;;;;20.38;4.78;;;;;;;22.26;74.63;101110.22;4928257;29;20039;-71
2022/08/04 05:11:45;;;;;;;12.32;5.10;;;;;;;22.40;74.14;101100.72;4915475;29;20042;-71
2022/08/04 05:14:19;;;;;;;18.48;4.13;;;;;;;22.44;73.90;101104.72;4984691;28;20030;-71
2022/08/04 05:16:57;;;;;;;17.42;5.07;;;;;;;22.62;73.68;101108.50;4992949;28;20153;-71
2022/08/04 05:19:27;;;;;;;10.10;3.92;;;;;;;22.68;73.39;101108.41;4990266;28;20040;-71
2022/08/04 05:22:01;;;;;;;19.67;5.07;;;;;;;22.62;73.42;101102.97;4990481;28;20089;-71
2022/08/04 05:24:30;;;;;;;19.95;5.22;;;;;;;22.55;73.59;101102.22;4990563;28;20029;-71
2022/08/04 05:27:01;;;;;;;18.45;4.60;;;;;;;22.80;72.96;101102.97;4991119;28;20014;-71
2022/08/04 05:29:28;;;;;;;;;;;;;;;22.77;73.12;101106.19;4991101;28;20053;-71
2022/08/04 05:31:56;;;;;;;21.13;5.10;;;;;;;22.67;73.44;101116.94;5006961;28;19979;-70
2022/08/04 05:34:42;;;;;;;26.20;4.53;;;;;;;22.92;72.51;101103.88;5005952;28;20023;-72
2022/08/04 05:37:13;;;;;;;20.10;4.18;;;;;;;23.06;72.22;101098.16;4987641;28;20031;-72
2022/08/04 05:39:48;;;;;;;15.48;4.28;;;;;;;23.28;71.80;101093.78;4990690;28;20029;-71
2022/08/04 05:42:15;;;;;;;11.95;3.95;;;;;;;23.60;70.06;101096.22;4991772;28;20173;-72
2022/08/04 05:44:42;;;;;;;11.93;3.60;;;;;;;23.75;69.98;101091.13;4991093;28;20105;-72
2022/08/04 05:47:11;;;;;;;14.88;3.65;;;;;;;23.86;69.14;101081.13;4987267;28;20019;-71
2022/08/04 05:49:38;;;;;;;12.25;3.40;;;;;;;23.87;69.48;101089.19;4990139;28;20054;-71
2022/08/04 05:52:05;;;;;;;12.25;3.78;;;;;;;24.07;68.25;101086.88;4990120;28;20065;-71
2022/08/04 05:54:32;;;;;;;9.80;3.38;;;;;;;24.18;68.02;101089.88;4991019;28;20018;-72
2022/08/04 05:56:59;;;;;;;14.65;3.25;;;;;;;24.25;67.74;101090.56;4990022;28;20054;-71
2022/08/04 05:59:25;;;;;;;16.20;3.53;;;;;;;24.39;67.43;101086.50;4990809;28;20037;-72
2022/08/04 06:01:55;;;;;;;20.63;3.80;;;;;;;24.30;67.84;101085.16;5003084;28;20027;-72
2022/08/04 06:04:23;;;;;;;11.20;4.22;;;;;;;24.12;67.54;101082.53;4988664;28;20033;-72
2022/08/04 06:06:51;;;;;;;14.75;3.70;;;;;;;24.27;67.25;101082.88;5006439;28;20018;-72
2022/08/04 06:09:16;;;;;;;10.75;3.78;;;;;;;24.30;67.26;101082.38;4988162;28;20085;-72
2022/08/04 06:11:43;;;;;;;18.65;4.35;;;;;;;24.60;66.67;101088.59;4996246;28;20018;-72
2022/08/04 06:14:13;;;;;;;19.45;2.95;;;;;;;24.83;66.04;101086.81;4991978;28;20110;-71
2022/08/04 06:16:42;;;;;;;18.13;3.30;;;;;;;24.86;65.60;101091.88;4996862;28;20029;-71
2022/08/04 06:19:10;;;;;;;9.18;3.13;;;;;;;24.90;65.57;101084.72;4999913;28;20026;-71
2022/08/04 06:21:38;;;;;;;9.18;3.38;;;;;;;24.66;66.29;101080.41;4987340;28;20380;-72
2022/08/04 06:24:06;;;;;;;11.68;3.25;;;;;;;24.94;65.59;101088.69;5004753;28;20023;-73
2022/08/04 06:26:34;;;;;;;18.88;3.72;;;;;;;25.27;64.80;101084.31;4988148;28;20093;-72
2022/08/04 06:29:01;;;;;;;12.07;3.08;;;;;;;25.28;64.87;101077.69;4995350;28;20042;-73
2022/08/04 06:31:45;;;;;;;15.65;3.40;;;;;;;25.39;64.62;101079.56;4986748;28;20021;-73
2022/08/04 06:34:13;;;;;;;16.65;3.58;;;;;;;25.63;63.74;101075.53;4991374;28;20038;-72
2022/08/04 06:36:41;;;;;;;24.08;3.33;;;;;;;25.76;63.69;101073.53;4976521;28;20133;-71
2022/08/04 06:39:08;;;;;;;11.85;3.45;;;;;;;25.70;64.16;101070.63;4982313;28;20037;-71
2022/08/04 06:41:34;;;;;;;17.77;3.50;;;;;;;25.64;63.94;101068.88;4975935;28;20029;-68
2022/08/04 06:44:08;;;;;;;17.73;3.85;;;;;;;25.87;62.81;101070.63;4978540;28;20034;-70
2022/08/04 06:46:35;;;;;;;12.68;3.35;;;;;;;25.75;63.05;101060.72;4982055;28;20022;-71
2022/08/04 06:49:03;;;;;;;19.88;3.33;;;;;;;25.95;62.46;101072.13;4984319;28;20023;-70
2022/08/04 06:51:30;;;;;;;16.00;4.07;;;;;;;26.12;62.42;101067.38;4975887;28;20468;-70
2022/08/04 06:53:55;;;;;;;19.00;3.38;;;;;;;26.11;62.39;101060.16;4999659;28;20071;-71
2022/08/04 06:56:23;;;;;;;26.25;4.13;;;;;;;26.15;62.07;101066.03;4988353;28;20065;-70
2022/08/04 06:58:54;;;;;;;10.27;4.03;;;;;;;26.11;62.50;101054.59;4981538;28;20014;-71
2022/08/04 07:01:21;;;;;;;17.63;4.97;;;;;;;26.09;62.14;101056.81;4986529;28;20066;-71
2022/08/04 07:03:48;;;;;;;11.68;3.15;;;;;;;26.29;61.54;101060.94;4982262;28;20030;-70
2022/08/04 07:06:14;;;;;;;11.60;3.55;;;;;;;26.23;62.53;101051.69;4987321;28;20639;-71
2022/08/04 07:08:40;;;;;;;13.35;3.42;;;;;;;26.30;61.97;101045.97;5002447;28;20015;-71
2022/08/04 07:11:06;;;;;;;13.90;3.08;;;;;;;26.40;61.36;101051.66;4986898;28;20018;-70
2022/08/04 07:13:32;;;;;;;16.08;3.33;;;;;;;26.16;61.30;101051.91;4985125;28;20133;-71
2022/08/04 07:15:59;;;;;;;14.15;3.00;;;;;;;26.46;61.04;101039.50;5002990;28;20064;-70
2022/08/04 07:18:25;;;;;;;14.02;3.20;;;;;;;26.43;60.91;101051.16;4988058;28;20070;-70
2022/08/04 07:20:51;;;;;;;13.00;3.15;;;;;;;26.44;60.48;101052.81;4985640;28;20105;-71
2022/08/04 07:23:23;;;;;;;13.43;3.30;;;;;;;26.59;60.79;101050.22;5001710;28;20030;-70
2022/08/04 07:25:56;;;;;;;10.48;3.28;;;;;;;27.01;60.23;101052.34;5003657;28;20018;-69
2022/08/04 07:28:28;;;;;;;9.07;3.05;;;;;;;27.28;59.02;101049.53;4984449;28;20042;-71
2022/08/04 07:30:55;;;;;;;23.08;3.70;;;;;;;27.23;58.87;101055.06;4984077;28;20101;-71
2022/08/04 07:33:22;;;;;;;11.73;2.58;;;;;;;27.55;56.91;101052.25;4986243;28;20030;-71
2022/08/04 07:35:53;;;;;;;12.80;3.40;;;;;;;27.55;57.52;101046.69;4986943;28;20025;-70
2022/08/04 07:38:19;;;;;;;14.90;3.30;;;;;;;27.65;57.12;101041.22;4980632;28;20035;-71
2022/08/04 07:40:45;;;;;;;12.35;3.65;;;;;;;27.80;56.69;101049.69;4987915;28;20018;-71
2022/08/04 07:43:13;;;;;;;11.35;3.45;;;;;;;27.98;56.78;101047.56;4986264;28;20025;-71
2022/08/04 07:45:38;;;;;;;17.17;3.92;;;;;;;28.24;56.33;101043.81;4985335;28;20061;-71
2022/08/04 07:48:05;;;;;;;10.98;3.00;;;;;;;28.43;55.84;101040.53;4987942;28;20053;-70
2022/08/04 07:50:32;;;;;;;11.88;3.45;;;;;;;28.51;55.03;101042.81;4981990;28;20017;-71
2022/08/04 07:52:58;;;;;;;9.90;2.58;;;;;;;28.87;54.40;101041.78;4986338;28;20370;-70
2022/08/04 07:55:24;;;;;;;18.00;3.38;;;;;;;29.05;53.94;101034.03;4980302;28;20034;-70
2022/08/04 07:57:50;;;;;;;20.00;3.75;;;;;;;29.13;53.03;101033.47;4985214;28;20025;-70
2022/08/04 08:00:16;;;;;;;20.55;3.67;;;;;;;29.19;51.88;101032.34;4999822;28;20121;-68
2022/08/04 08:02:44;;;;;;;10.23;3.47;;;;;;;29.57;50.09;101028.19;4986226;28;20101;-69
2022/08/04 08:05:13;;;;;;;16.20;3.10;;;;;;;29.55;50.47;101026.81;4983896;28;20019;-69
2022/08/04 08:07:38;;;;;;;21.60;3.65;;;;;;;29.77;49.47;101027.31;4985692;28;20153;-70
2022/08/04 08:10:04;;;;;;;20.27;3.10;;;;;;;29.65;50.20;101029.56;4987868;28;20092;-69
2022/08/04 08:12:31;;;;;;;25.35;4.32;;;;;;;30.17;49.54;101022.72;4985592;28;20046;-71
2022/08/04 08:14:58;;;;;;;13.65;3.45;;;;;;;30.19;48.83;101023.28;4980404;28;20061;-70
2022/08/04 08:17:23;;;;;;;18.10;3.53;;;;;;;30.50;48.01;101030.38;4986030;28;20053;-71
2022/08/04 08:19:49;;;;;;;16.33;3.05;;;;;;;30.52;47.59;101021.75;4990579;28;20010;-70
2022/08/04 08:22:15;;;;;;;12.90;2.92;;;;;;;30.22;47.98;101017.13;4987006;28;20028;-70
2022/08/04 08:24:41;;;;;;;12.20;3.13;;;;;;;30.26;47.60;101013.50;4985418;28;20090;-71
2022/08/04 08:27:06;;;;;;;12.23;3.20;;;;;;;30.41;46.46;101009.78;4998160;28;20504;-70
2022/08/04 08:29:36;;;;;;;18.80;3.53;;;;;;;30.16;47.16;101012.69;4982471;28;20138;-71
2022/08/04 08:32:03;;;;;;;11.63;3.08;;;;;;;30.72;46.90;101009.63;4978599;28;20031;-69
2022/08/04 08:34:30;;;;;;;14.35;3.22;;;;;;;30.90;46.07;101011.72;4985159;28;20018;-70
2022/08/04 08:37:07;;;;;;;18.08;2.70;;;;;;;31.29;45.17;101010.88;4987020;28;20129;-70
2022/08/04 08:40:13;;;;;;;13.32;2.47;;;;;;;31.75;43.78;101004.81;4986354;28;20030;-71
2022/08/04 08:43:16;;;;;;;16.73;3.88;;;;;;;32.15;42.49;101003.53;4940034;28;20069;-70
2022/08/04 08:45:48;;;;;;;25.65;3.70;;;;;;;32.41;41.61;100998.47;4981099;28;20029;-71
2022/08/04 08:48:47;;;;;;;22.45;3.33;;;;;;;31.91;41.08;101002.72;4983732;28;20034;-70
2022/08/04 08:51:24;;;;;;;9.25;2.70;;;;;;;31.81;39.98;100995.25;4982244;28;20082;-70
2022/08/04 08:53:56;;;;;;;13.15;2.38;;;;;;;31.97;40.76;100991.16;4984952;28;20030;-70
2022/08/04 08:56:32;;;;;;;15.23;3.28;;;;;;;32.35;39.35;101002.47;4984679;28;20512;-70
2022/08/04 08:59:33;;;;;;;8.90;2.78;;;;;;;31.97;40.65;100990.31;4985130;28;20505;-70
2022/08/04 09:02:17;;;;;;;10.85;2.60;;;;;;;32.04;40.65;100986.03;4984650;28;20026;-70
2022/08/04 09:04:43;;;;;;;11.15;3.00;;;;;;;32.31;40.33;100990.16;4985322;28;20015;-70
2022/08/04 09:07:29;;;;;;;6.10;2.75;;;;;;;32.30;39.70;100982.88;4985517;28;20030;-71
2022/08/04 09:10:07;;;;;;;12.40;2.58;;;;;;;32.30;39.66;100980.06;4984653;28;20085;-71
2022/08/04 09:12:55;;;;;;;9.00;2.60;;;;;;;32.42;38.18;100986.09;4985862;28;20048;-71
2022/08/04 09:15:33;;;;;;;18.60;2.80;;;;;;;32.42;38.54;100983.31;4983175;28;20026;-71
2022/08/04 09:18:08;;;;;;;12.10;2.63;;;;;;;32.56;37.87;100998.22;4985142;28;20022;-71
2022/08/04 09:20:39;;;;;;;11.27;2.92;;;;;;;32.67;38.12;100987.72;4986510;28;20029;-71
2022/08/04 09:23:23;;;;;;;;;;;;;;;32.87;37.87;100986.59;5000866;28;20022;-72
2022/08/04 09:26:28;;;;;;;7.78;2.13;;;;;;;33.06;35.41;100994.94;4985514;28;19921;-71
2022/08/04 09:28:58;;;;;;;6.25;2.35;;;;;;;32.89;35.33;100984.31;4985217;28;20014;-72
2022/08/04 09:31:32;;;;;;;12.90;2.33;;;;;;;32.93;34.86;100988.16;4984037;28;20366;-71
2022/08/04 09:34:19;;;;;;;16.33;2.78;;;;;;;32.80;36.29;100974.84;4982970;28;20041;-72
2022/08/04 09:36:55;;;;;;;8.00;2.90;;;;;;;33.31;35.78;100968.41;4986202;28;20042;-71
2022/08/04 09:39:41;;;;;;;14.23;2.63;;;;;;;33.48;35.36;100975.13;4974209;28;20026;-72
2022/08/04 09:42:23;;;;;;;16.92;2.58;;;;;;;33.57;33.13;100972.44;4984931;28;20122;-69
2022/08/04 09:44:57;;;;;;;7.97;2.45;;;;;;;33.64;33.33;100983.25;4984022;28;20022;-69
2022/08/04 09:47:37;;;;;;;7.32;2.30;;;;;;;33.61;32.93;100967.88;4983469;28;20045;-71
2022/08/04 09:50:14;;;;;;;9.20;2.55;;;;;;;33.89;31.69;100962.25;4980685;28;20409;-70
2022/08/04 09:52:51;;;;;;;7.03;2.80;;;;;;;34.01;33.17;100959.78;4984350;28;20110;-70
2022/08/04 09:55:44;;;;;;;4.65;2.10;;;;;;;34.19;33.09;100963.63;4986462;28;20056;-70
2022/08/04 09:58:40;;;;;;;4.20;2.30;;;;;;;34.16;32.34;100962.25;4983672;28;20018;-71
2022/08/04 10:01:09;;;;;;;16.10;2.63;;;;;;;33.56;33.07;100965.16;4982191;28;20022;-69
2022/08/04 10:03:40;;;;;;;8.70;1.98;;;;;;;33.71;32.35;100959.25;4997314;28;20106;-71
2022/08/04 10:06:26;;;;;;;9.07;2.70;;;;;;;33.73;33.15;100959.78;5000340;28;20015;-70
2022/08/04 10:09:29;;;;;;;7.93;2.30;;;;;;;33.95;32.64;100949.81;4981656;28;20026;-71
2022/08/04 10:12:08;;;;;;;8.20;2.47;;;;;;;34.40;32.63;100955.53;4994407;28;20023;-71
2022/08/04 10:14:46;;;;;;;14.13;2.75;;;;;;;34.46;32.24;100943.06;4974711;28;20124;-71
2022/08/04 10:17:37;;;;;;;10.38;2.35;;;;;;;34.59;32.49;100953.44;4984721;28;20022;-71
2022/08/04 10:20:08;;;;;;;8.45;2.70;;;;;;;34.20;32.96;100952.06;5000962;28;20034;-70
2022/08/04 10:22:54;;;;;;;6.40;2.67;;;;;;;33.81;33.61;100937.72;4974741;28;20033;-71
2022/08/04 10:25:40;;;;;;;8.63;2.42;;;;;;;33.97;34.33;100944.69;4984125;28;20023;-70
2022/08/04 10:28:12;;;;;;;9.68;2.70;;;;;;;34.09;34.00;100939.38;4985699;28;20030;-70
2022/08/04 10:30:42;;;;;;;12.00;2.95;;;;;;;34.47;33.71;100939.09;4984887;28;20184;-70
2022/08/04 10:33:22;;;;;;;6.03;2.75;;;;;;;34.81;33.48;100933.75;4986393;28;20078;-70
2022/08/04 10:35:51;;;;;;;5.60;2.53;;;;;;;34.80;31.63;100932.09;4980742;28;20022;-71
2022/08/04 10:38:24;;;;;;;8.43;2.40;;;;;;;34.14;32.80;100936.44;4979834;28;20046;-70
2022/08/04 10:41:26;;;;;;;10.60;2.50;;;;;;;35.03;31.72;100935.75;4982808;28;20018;-71
2022/08/04 10:44:39;;;;;;;13.80;2.63;;;;;;;34.76;31.46;100936.72;4977112;28;20037;-69
2022/08/04 10:47:13;;;;;;;7.03;2.50;;;;;;;35.01;30.66;100928.78;4925945;28;20076;-71
2022/08/04 10:49:50;;;;;;;11.32;2.55;;;;;;;35.26;30.87;100925.28;4978707;28;20038;-70
2022/08/04 10:52:41;;;;;;;5.97;2.60;;;;;;;35.55;30.67;100923.97;4982081;28;20045;-71
2022/08/04 10:55:26;;;;;;;10.45;2.63;;;;;;;35.84;29.58;100918.59;4983238;28;20026;-70
2022/08/04 10:57:58;;;;;;;10.52;2.10;;;;;;;35.90;29.51;100908.00;4979358;28;20659;-71
2022/08/04 11:00:25;;;;;;;6.03;2.55;;;;;;;35.61;29.49;100900.13;4987008;28;20050;-71
2022/08/04 11:03:05;;;;;;;8.43;2.20;;;;;;;35.81;28.88;100898.69;4986591;28;20054;-71
2022/08/04 11:05:56;;;;;;;10.05;2.60;;;;;;;35.58;28.94;100900.78;4971487;28;20113;-71
2022/08/04 11:08:30;;;;;;;;;;;;;;;35.85;29.40;100900.50;4985560;28;20110;-70
2022/08/04 11:11:06;;;;;;;9.23;2.47;;;;;;;36.08;28.37;100889.16;5003790;28;19918;-71
2022/08/04 11:13:39;;;;;;;10.90;2.28;;;;;;;35.87;28.66;100886.13;4987027;28;20153;-71
2022/08/04 11:16:21;;;;;;;6.47;2.30;;;;;;;36.10;27.47;100895.28;4999504;28;20022;-71
2022/08/04 11:18:55;;;;;;;8.45;2.35;;;;;;;36.53;26.52;100886.06;5003650;28;20014;-72
2022/08/04 11:21:27;;;;;;;7.32;2.67;;;;;;;36.63;25.53;100885.69;5003246;28;20026;-72
2022/08/04 11:24:01;;;;;;;5.57;2.45;;;;;;;36.83;26.01;100879.34;4986768;28;20045;-72
2022/08/04 11:26:43;;;;;;;6.65;2.47;;;;;;;37.57;24.58;100877.34;4986723;28;20068;-71
2022/08/04 11:29:27;;;;;;;11.38;2.35;;;;;;;37.09;25.23;100870.84;4984782;28;20107;-72
2022/08/04 11:31:57;;;;;;;8.10;2.45;;;;;;;37.16;25.24;100873.13;4987839;28;20053;-73
2022/08/04 11:34:24;;;;;;;4.28;2.00;;;;;;;37.17;25.37;100872.00;4985868;28;20062;-71
2022/08/04 11:37:19;;;;;;;6.55;2.47;;;;;;;37.07;25.42;100872.34;4986470;28;20019;-72
2022/08/04 11:39:51;;;;;;;7.38;2.25;;;;;;;37.45;25.36;100870.41;4973466;28;20077;-73
2022/08/04 11:42:35;;;;;;;5.43;1.95;;;;;;;37.93;24.92;100865.47;5001934;28;20038;-73
2022/08/04 11:45:18;;;;;;;11.95;2.53;;;;;;;37.88;24.84;100868.50;4997212;28;20023;-72
2022/08/04 11:47:54;;;;;;;10.93;2.08;;;;;;;37.03;26.26;100862.88;4976199;28;20031;-72
2022/08/04 11:50:37;;;;;;;4.40;2.50;;;;;;;37.05;25.85;100863.41;4995875;28;20026;-72
2022/08/04 11:53:04;;;;;;;5.38;2.63;;;;;;;37.06;25.88;100865.88;4995315;28;20520;-71
2022/08/04 11:55:31;;;;;;;5.97;2.30;;;;;;;37.13;25.39;100868.19;4991009;28;20512;-71
2022/08/04 11:57:57;;;;;;;9.23;2.40;;;;;;;38.25;25.34;100861.06;4991334;28;20044;-71
2022/08/04 12:00:26;;;;;;;13.10;2.50;;;;;;;38.54;24.78;100857.38;4989032;28;20022;-71
2022/08/04 12:03:10;;;;;;;9.38;2.83;;;;;;;37.69;25.31;100854.78;4987832;28;20022;-71
2022/08/04 12:06:05;;;;;;;11.52;2.80;;;;;;;37.69;24.68;100854.78;4988676;28;20054;-71
2022/08/04 12:09:03;;;;;;;5.78;2.20;;;;;;;37.34;24.77;100866.28;4987872;28;20509;-70